sensor_id;sensor_type;location;lat;lon;timestamp;P1;durP1;ratioP1;P2;durP2;ratioP2
3149;SDS011;32503;47.748;8.960;2022-07-06T00:01:55;3.10;;;2.90;;
3149;SDS011;32503;47.748;8.960;2022-07-06T00:04:22;3.27;;;3.07;;
3149;SDS011;32503;47.748;8.960;2022-07-06T00:06:49;3.20;;;3.00;;
3149;SDS011;32503;47.748;8.960;2022-07-06T00:09:16;6.80;;;3.03;;
3149;SDS011;32503;47.748;8.960;2022-07-06T00:11:45;2.93;;;2.80;;
3149;SDS011;32503;47.748;8.960;2022-07-06T00:14:12;3.43;;;3.23;;
3149;SDS011;32503;47.748;8.960;2022-07-06T00:16:39;2.53;;;2.43;;
3149;SDS011;32503;47.748;8.960;2022-07-06T00:19:06;3.03;;;2.83;;
3149;SDS011;32503;47.748;8.960;2022-07-06T00:21:33;3.10;;;2.90;;
3149;SDS011;32503;47.748;8.960;2022-07-06T00:24:00;3.30;;;3.10;;
3149;SDS011;32503;47.748;8.960;2022-07-06T00:26:28;3.10;;;2.90;;
3149;SDS011;32503;47.748;8.960;2022-07-06T00:28:56;2.90;;;2.80;;
3149;SDS011;32503;47.748;8.960;2022-07-06T00:31:24;3.07;;;2.87;;
3149;SDS011;32503;47.748;8.960;2022-07-06T00:33:51;2.90;;;2.80;;
3149;SDS011;32503;47.748;8.960;2022-07-06T00:36:18;3.07;;;2.97;;
3149;SDS011;32503;47.748;8.960;2022-07-06T00:38:45;3.10;;;3.00;;
3149;SDS011;32503;47.748;8.960;2022-07-06T00:41:12;3.93;;;2.80;;
3149;SDS011;32503;47.748;8.960;2022-07-06T00:43:46;3.00;;;2.80;;
3149;SDS011;32503;47.748;8.960;2022-07-06T00:46:17;3.63;;;3.27;;
3149;SDS011;32503;47.748;8.960;2022-07-06T00:48:44;3.10;;;3.00;;
3149;SDS011;32503;47.748;8.960;2022-07-06T00:51:12;3.20;;;3.00;;
3149;SDS011;32503;47.748;8.960;2022-07-06T00:53:39;2.43;;;2.33;;
3149;SDS011;32503;47.748;8.960;2022-07-06T00:56:08;2.83;;;2.73;;
3149;SDS011;32503;47.748;8.960;2022-07-06T00:58:36;3.27;;;3.17;;
3149;SDS011;32503;47.748;8.960;2022-07-06T01:01:03;3.30;;;3.10;;
3149;SDS011;32503;47.748;8.960;2022-07-06T01:03:32;3.53;;;3.43;;
3149;SDS011;32503;47.748;8.960;2022-07-06T01:05:59;4.03;;;3.10;;
3149;SDS011;32503;47.748;8.960;2022-07-06T01:08:27;3.33;;;3.03;;
3149;SDS011;32503;47.748;8.960;2022-07-06T01:10:55;3.33;;;3.23;;
3149;SDS011;32503;47.748;8.960;2022-07-06T01:13:22;3.67;;;3.47;;
3149;SDS011;32503;47.748;8.960;2022-07-06T01:15:51;3.20;;;3.10;;
3149;SDS011;32503;47.748;8.960;2022-07-06T01:18:19;3.77;;;3.60;;
3149;SDS011;32503;47.748;8.960;2022-07-06T01:20:48;3.40;;;3.10;;
3149;SDS011;32503;47.748;8.960;2022-07-06T01:23:15;3.13;;;3.03;;
3149;SDS011;32503;47.748;8.960;2022-07-06T01:25:42;3.10;;;3.00;;
3149;SDS011;32503;47.748;8.960;2022-07-06T01:28:09;3.13;;;3.00;;
3149;SDS011;32503;47.748;8.960;2022-07-06T01:30:37;3.23;;;3.03;;
3149;SDS011;32503;47.748;8.960;2022-07-06T01:33:04;3.20;;;3.00;;
3149;SDS011;32503;47.748;8.960;2022-07-06T01:35:31;3.17;;;3.07;;
3149;SDS011;32503;47.748;8.960;2022-07-06T01:38:03;3.33;;;3.13;;
3149;SDS011;32503;47.748;8.960;2022-07-06T01:40:30;5.40;;;4.90;;
3149;SDS011;32503;47.748;8.960;2022-07-06T01:42:59;3.40;;;3.20;;
3149;SDS011;32503;47.748;8.960;2022-07-06T01:45:30;3.40;;;3.20;;
3149;SDS011;32503;47.748;8.960;2022-07-06T01:47:58;3.00;;;2.90;;
3149;SDS011;32503;47.748;8.960;2022-07-06T01:50:25;3.10;;;2.90;;
3149;SDS011;32503;47.748;8.960;2022-07-06T01:52:53;3.83;;;3.73;;
3149;SDS011;32503;47.748;8.960;2022-07-06T01:55:21;2.83;;;2.73;;
3149;SDS011;32503;47.748;8.960;2022-07-06T01:57:48;3.30;;;3.20;;
3149;SDS011;32503;47.748;8.960;2022-07-06T02:00:15;3.00;;;2.80;;
3149;SDS011;32503;47.748;8.960;2022-07-06T02:02:42;3.60;;;3.30;;
3149;SDS011;32503;47.748;8.960;2022-07-06T02:05:10;3.50;;;2.90;;
3149;SDS011;32503;47.748;8.960;2022-07-06T02:07:37;2.90;;;2.80;;
3149;SDS011;32503;47.748;8.960;2022-07-06T02:10:04;8.20;;;2.73;;
3149;SDS011;32503;47.748;8.960;2022-07-06T02:12:33;3.33;;;3.07;;
3149;SDS011;32503;47.748;8.960;2022-07-06T02:15:00;3.20;;;3.00;;
3149;SDS011;32503;47.748;8.960;2022-07-06T02:17:27;3.20;;;3.10;;
3149;SDS011;32503;47.748;8.960;2022-07-06T02:19:54;3.40;;;3.30;;
3149;SDS011;32503;47.748;8.960;2022-07-06T02:22:21;3.10;;;3.00;;
3149;SDS011;32503;47.748;8.960;2022-07-06T02:24:49;3.13;;;3.03;;
3149;SDS011;32503;47.748;8.960;2022-07-06T02:27:16;2.93;;;2.83;;
3149;SDS011;32503;47.748;8.960;2022-07-06T02:29:44;3.30;;;3.20;;
3149;SDS011;32503;47.748;8.960;2022-07-06T02:32:11;3.27;;;3.10;;
3149;SDS011;32503;47.748;8.960;2022-07-06T02:34:38;3.63;;;3.43;;
3149;SDS011;32503;47.748;8.960;2022-07-06T02:37:05;3.57;;;3.37;;
3149;SDS011;32503;47.748;8.960;2022-07-06T02:39:33;3.40;;;3.30;;
3149;SDS011;32503;47.748;8.960;2022-07-06T02:42:00;3.50;;;3.40;;
3149;SDS011;32503;47.748;8.960;2022-07-06T02:44:27;3.23;;;3.13;;
3149;SDS011;32503;47.748;8.960;2022-07-06T02:46:55;3.37;;;3.27;;
3149;SDS011;32503;47.748;8.960;2022-07-06T02:49:22;3.57;;;3.47;;
3149;SDS011;32503;47.748;8.960;2022-07-06T02:51:49;3.13;;;3.03;;
3149;SDS011;32503;47.748;8.960;2022-07-06T02:54:16;3.00;;;2.80;;
3149;SDS011;32503;47.748;8.960;2022-07-06T02:56:44;3.30;;;3.20;;
3149;SDS011;32503;47.748;8.960;2022-07-06T02:59:16;3.70;;;3.40;;
3149;SDS011;32503;47.748;8.960;2022-07-06T03:01:43;3.70;;;3.60;;
3149;SDS011;32503;47.748;8.960;2022-07-06T03:04:11;4.03;;;3.83;;
3149;SDS011;32503;47.748;8.960;2022-07-06T03:06:38;4.07;;;3.20;;
3149;SDS011;32503;47.748;8.960;2022-07-06T03:09:05;3.77;;;3.67;;
3149;SDS011;32503;47.748;8.960;2022-07-06T03:11:33;3.60;;;3.40;;
3149;SDS011;32503;47.748;8.960;2022-07-06T03:14:01;3.03;;;2.83;;
3149;SDS011;32503;47.748;8.960;2022-07-06T03:16:29;2.93;;;2.83;;
3149;SDS011;32503;47.748;8.960;2022-07-06T03:18:56;3.63;;;3.33;;
3149;SDS011;32503;47.748;8.960;2022-07-06T03:21:25;3.10;;;3.00;;
3149;SDS011;32503;47.748;8.960;2022-07-06T03:23:52;3.20;;;3.10;;
3149;SDS011;32503;47.748;8.960;2022-07-06T03:26:19;3.63;;;3.33;;
3149;SDS011;32503;47.748;8.960;2022-07-06T03:28:46;3.73;;;3.43;;
3149;SDS011;32503;47.748;8.960;2022-07-06T03:31:13;3.53;;;3.43;;
3149;SDS011;32503;47.748;8.960;2022-07-06T03:33:41;3.17;;;3.07;;
3149;SDS011;32503;47.748;8.960;2022-07-06T03:36:08;3.67;;;3.47;;
3149;SDS011;32503;47.748;8.960;2022-07-06T03:38:37;3.43;;;3.33;;
3149;SDS011;32503;47.748;8.960;2022-07-06T03:41:04;5.07;;;3.60;;
3149;SDS011;32503;47.748;8.960;2022-07-06T03:43:31;3.80;;;3.60;;
3149;SDS011;32503;47.748;8.960;2022-07-06T03:45:59;3.50;;;3.27;;
3149;SDS011;32503;47.748;8.960;2022-07-06T03:48:26;3.60;;;3.30;;
3149;SDS011;32503;47.748;8.960;2022-07-06T03:50:54;3.50;;;3.40;;
3149;SDS011;32503;47.748;8.960;2022-07-06T03:53:21;3.50;;;3.20;;
3149;SDS011;32503;47.748;8.960;2022-07-06T03:55:50;3.90;;;3.70;;
3149;SDS011;32503;47.748;8.960;2022-07-06T03:58:31;3.70;;;3.60;;
3149;SDS011;32503;47.748;8.960;2022-07-06T04:00:58;3.77;;;3.57;;
3149;SDS011;32503;47.748;8.960;2022-07-06T04:03:25;3.10;;;2.90;;
3149;SDS011;32503;47.748;8.960;2022-07-06T04:05:52;3.50;;;3.20;;
3149;SDS011;32503;47.748;8.960;2022-07-06T04:08:20;2.80;;;2.60;;
3149;SDS011;32503;47.748;8.960;2022-07-06T04:10:47;3.20;;;3.10;;
3149;SDS011;32503;47.748;8.960;2022-07-06T04:13:15;3.73;;;3.43;;
3149;SDS011;32503;47.748;8.960;2022-07-06T04:15:42;3.93;;;3.63;;
3149;SDS011;32503;47.748;8.960;2022-07-06T04:18:09;3.73;;;3.53;;
3149;SDS011;32503;47.748;8.960;2022-07-06T04:20:37;3.63;;;3.20;;
3149;SDS011;32503;47.748;8.960;2022-07-06T04:23:04;3.00;;;2.90;;
3149;SDS011;32503;47.748;8.960;2022-07-06T04:25:31;3.50;;;3.20;;
3149;SDS011;32503;47.748;8.960;2022-07-06T04:27:58;4.33;;;4.03;;
3149;SDS011;32503;47.748;8.960;2022-07-06T04:30:27;3.00;;;2.90;;
3149;SDS011;32503;47.748;8.960;2022-07-06T04:32:54;3.87;;;3.67;;
3149;SDS011;32503;47.748;8.960;2022-07-06T04:35:22;4.03;;;3.73;;
3149;SDS011;32503;47.748;8.960;2022-07-06T04:37:49;6.03;;;4.13;;
3149;SDS011;32503;47.748;8.960;2022-07-06T04:40:16;4.73;;;4.20;;
3149;SDS011;32503;47.748;8.960;2022-07-06T04:42:43;4.40;;;4.00;;
3149;SDS011;32503;47.748;8.960;2022-07-06T04:45:11;3.90;;;3.80;;
3149;SDS011;32503;47.748;8.960;2022-07-06T04:47:39;5.47;;;4.17;;
3149;SDS011;32503;47.748;8.960;2022-07-06T04:50:08;4.50;;;3.70;;
3149;SDS011;32503;47.748;8.960;2022-07-06T04:52:36;3.73;;;3.43;;
3149;SDS011;32503;47.748;8.960;2022-07-06T04:55:03;3.43;;;3.17;;
3149;SDS011;32503;47.748;8.960;2022-07-06T04:57:31;3.80;;;3.60;;
3149;SDS011;32503;47.748;8.960;2022-07-06T04:59:58;4.00;;;3.90;;
3149;SDS011;32503;47.748;8.960;2022-07-06T05:02:25;5.03;;;4.30;;
3149;SDS011;32503;47.748;8.960;2022-07-06T05:04:54;3.80;;;3.60;;
3149;SDS011;32503;47.748;8.960;2022-07-06T05:07:21;6.53;;;3.80;;
3149;SDS011;32503;47.748;8.960;2022-07-06T05:09:53;3.30;;;3.20;;
3149;SDS011;32503;47.748;8.960;2022-07-06T05:12:20;5.00;;;3.30;;
3149;SDS011;32503;47.748;8.960;2022-07-06T05:14:47;5.60;;;3.30;;
3149;SDS011;32503;47.748;8.960;2022-07-06T05:17:14;3.30;;;3.20;;
3149;SDS011;32503;47.748;8.960;2022-07-06T05:19:41;3.70;;;3.50;;
3149;SDS011;32503;47.748;8.960;2022-07-06T05:22:10;3.70;;;3.40;;
3149;SDS011;32503;47.748;8.960;2022-07-06T05:24:37;3.97;;;3.77;;
3149;SDS011;32503;47.748;8.960;2022-07-06T05:27:04;8.40;;;4.10;;
3149;SDS011;32503;47.748;8.960;2022-07-06T05:29:31;4.50;;;4.20;;
3149;SDS011;32503;47.748;8.960;2022-07-06T05:31:58;5.03;;;4.80;;
3149;SDS011;32503;47.748;8.960;2022-07-06T05:34:26;3.93;;;3.63;;
3149;SDS011;32503;47.748;8.960;2022-07-06T05:36:53;3.83;;;3.57;;
3149;SDS011;32503;47.748;8.960;2022-07-06T05:39:21;3.77;;;3.57;;
3149;SDS011;32503;47.748;8.960;2022-07-06T05:41:48;3.93;;;3.73;;
3149;SDS011;32503;47.748;8.960;2022-07-06T05:44:15;4.30;;;4.10;;
3149;SDS011;32503;47.748;8.960;2022-07-06T05:46:43;4.20;;;4.00;;
3149;SDS011;32503;47.748;8.960;2022-07-06T05:49:10;4.53;;;4.20;;
3149;SDS011;32503;47.748;8.960;2022-07-06T05:51:55;3.60;;;3.50;;
3149;SDS011;32503;47.748;8.960;2022-07-06T05:54:23;4.33;;;3.90;;
3149;SDS011;32503;47.748;8.960;2022-07-06T05:56:50;4.10;;;3.80;;
3149;SDS011;32503;47.748;8.960;2022-07-06T05:59:17;4.17;;;3.93;;
3149;SDS011;32503;47.748;8.960;2022-07-06T06:01:44;6.33;;;3.97;;
3149;SDS011;32503;47.748;8.960;2022-07-06T06:04:11;4.13;;;3.83;;
3149;SDS011;32503;47.748;8.960;2022-07-06T06:06:38;3.50;;;3.30;;
3149;SDS011;32503;47.748;8.960;2022-07-06T06:09:06;4.10;;;3.80;;
3149;SDS011;32503;47.748;8.960;2022-07-06T06:11:34;4.23;;;3.50;;
3149;SDS011;32503;47.748;8.960;2022-07-06T06:14:01;3.80;;;3.50;;
3149;SDS011;32503;47.748;8.960;2022-07-06T06:16:29;4.07;;;3.80;;
3149;SDS011;32503;47.748;8.960;2022-07-06T06:18:56;3.80;;;3.70;;
3149;SDS011;32503;47.748;8.960;2022-07-06T06:21:23;4.20;;;3.87;;
3149;SDS011;32503;47.748;8.960;2022-07-06T06:23:50;4.50;;;4.20;;
3149;SDS011;32503;47.748;8.960;2022-07-06T06:26:17;4.00;;;3.70;;
3149;SDS011;32503;47.748;8.960;2022-07-06T06:28:46;4.30;;;4.00;;
3149;SDS011;32503;47.748;8.960;2022-07-06T06:31:13;4.67;;;4.40;;
3149;SDS011;32503;47.748;8.960;2022-07-06T06:33:40;4.40;;;4.20;;
3149;SDS011;32503;47.748;8.960;2022-07-06T06:36:07;4.10;;;3.80;;
3149;SDS011;32503;47.748;8.960;2022-07-06T06:38:35;3.77;;;3.57;;
3149;SDS011;32503;47.748;8.960;2022-07-06T06:41:02;4.33;;;4.03;;
3149;SDS011;32503;47.748;8.960;2022-07-06T06:43:29;3.70;;;3.60;;
3149;SDS011;32503;47.748;8.960;2022-07-06T06:45:57;4.40;;;4.10;;
3149;SDS011;32503;47.748;8.960;2022-07-06T06:48:24;3.87;;;3.63;;
3149;SDS011;32503;47.748;8.960;2022-07-06T06:50:51;3.90;;;3.70;;
3149;SDS011;32503;47.748;8.960;2022-07-06T06:53:18;3.70;;;3.50;;
3149;SDS011;32503;47.748;8.960;2022-07-06T06:55:46;4.10;;;3.90;;
3149;SDS011;32503;47.748;8.960;2022-07-06T06:58:13;3.53;;;3.30;;
3149;SDS011;32503;47.748;8.960;2022-07-06T07:00:40;3.27;;;3.07;;
3149;SDS011;32503;47.748;8.960;2022-07-06T07:03:09;3.63;;;3.53;;
3149;SDS011;32503;47.748;8.960;2022-07-06T07:05:36;3.30;;;3.10;;
3149;SDS011;32503;47.748;8.960;2022-07-06T07:08:04;4.07;;;3.50;;
3149;SDS011;32503;47.748;8.960;2022-07-06T07:10:32;3.83;;;3.63;;
3149;SDS011;32503;47.748;8.960;2022-07-06T07:12:59;3.17;;;3.07;;
3149;SDS011;32503;47.748;8.960;2022-07-06T07:15:26;3.20;;;3.10;;
3149;SDS011;32503;47.748;8.960;2022-07-06T07:17:53;3.30;;;3.20;;
3149;SDS011;32503;47.748;8.960;2022-07-06T07:20:22;3.77;;;3.57;;
3149;SDS011;32503;47.748;8.960;2022-07-06T07:22:50;3.70;;;3.50;;
3149;SDS011;32503;47.748;8.960;2022-07-06T07:25:17;3.60;;;3.50;;
3149;SDS011;32503;47.748;8.960;2022-07-06T07:27:44;3.63;;;3.43;;
3149;SDS011;32503;47.748;8.960;2022-07-06T07:30:11;3.93;;;3.17;;
3149;SDS011;32503;47.748;8.960;2022-07-06T07:32:39;3.03;;;2.93;;
3149;SDS011;32503;47.748;8.960;2022-07-06T07:35:06;3.30;;;3.10;;
3149;SDS011;32503;47.748;8.960;2022-07-06T07:37:35;3.37;;;3.27;;
3149;SDS011;32503;47.748;8.960;2022-07-06T07:40:03;3.70;;;3.60;;
3149;SDS011;32503;47.748;8.960;2022-07-06T07:42:32;3.67;;;3.40;;
3149;SDS011;32503;47.748;8.960;2022-07-06T07:44:59;3.20;;;3.10;;
3149;SDS011;32503;47.748;8.960;2022-07-06T07:47:26;3.60;;;3.50;;
3149;SDS011;32503;47.748;8.960;2022-07-06T07:49:53;3.60;;;3.40;;
3149;SDS011;32503;47.748;8.960;2022-07-06T07:52:20;3.57;;;3.37;;
3149;SDS011;32503;47.748;8.960;2022-07-06T07:54:49;3.30;;;3.10;;
3149;SDS011;32503;47.748;8.960;2022-07-06T07:57:16;4.10;;;3.80;;
3149;SDS011;32503;47.748;8.960;2022-07-06T07:59:43;3.80;;;3.70;;
3149;SDS011;32503;47.748;8.960;2022-07-06T08:02:10;3.47;;;3.30;;
3149;SDS011;32503;47.748;8.960;2022-07-06T08:04:37;2.80;;;2.70;;
3149;SDS011;32503;47.748;8.960;2022-07-06T08:07:04;3.80;;;3.60;;
3149;SDS011;32503;47.748;8.960;2022-07-06T08:09:32;3.93;;;3.03;;
3149;SDS011;32503;47.748;8.960;2022-07-06T08:12:00;3.50;;;3.40;;
3149;SDS011;32503;47.748;8.960;2022-07-06T08:14:27;3.50;;;3.30;;
3149;SDS011;32503;47.748;8.960;2022-07-06T08:16:55;4.33;;;4.10;;
3149;SDS011;32503;47.748;8.960;2022-07-06T08:19:22;3.57;;;3.47;;
3149;SDS011;32503;47.748;8.960;2022-07-06T08:21:49;3.80;;;3.70;;
3149;SDS011;32503;47.748;8.960;2022-07-06T08:24:16;3.60;;;3.40;;
3149;SDS011;32503;47.748;8.960;2022-07-06T08:26:43;3.90;;;3.80;;
3149;SDS011;32503;47.748;8.960;2022-07-06T08:29:11;3.43;;;3.33;;
3149;SDS011;32503;47.748;8.960;2022-07-06T08:31:38;3.53;;;3.20;;
3149;SDS011;32503;47.748;8.960;2022-07-06T08:34:06;4.20;;;4.00;;
3149;SDS011;32503;47.748;8.960;2022-07-06T08:36:33;3.67;;;3.50;;
3149;SDS011;32503;47.748;8.960;2022-07-06T08:39:00;3.77;;;3.67;;
3149;SDS011;32503;47.748;8.960;2022-07-06T08:41:28;3.80;;;3.60;;
3149;SDS011;32503;47.748;8.960;2022-07-06T08:43:56;4.33;;;4.13;;
3149;SDS011;32503;47.748;8.960;2022-07-06T08:46:25;4.03;;;3.90;;
3149;SDS011;32503;47.748;8.960;2022-07-06T08:48:55;3.90;;;3.70;;
3149;SDS011;32503;47.748;8.960;2022-07-06T08:51:24;5.20;;;4.07;;
3149;SDS011;32503;47.748;8.960;2022-07-06T08:53:51;3.93;;;3.73;;
3149;SDS011;32503;47.748;8.960;2022-07-06T08:56:19;4.23;;;4.03;;
3149;SDS011;32503;47.748;8.960;2022-07-06T08:58:46;4.77;;;4.27;;
3149;SDS011;32503;47.748;8.960;2022-07-06T09:01:13;3.77;;;3.67;;
3149;SDS011;32503;47.748;8.960;2022-07-06T09:03:43;4.20;;;4.00;;
3149;SDS011;32503;47.748;8.960;2022-07-06T09:06:14;4.60;;;4.30;;
3149;SDS011;32503;47.748;8.960;2022-07-06T09:08:49;4.47;;;4.17;;
3149;SDS011;32503;47.748;8.960;2022-07-06T09:11:20;4.67;;;4.47;;
3149;SDS011;32503;47.748;8.960;2022-07-06T09:13:47;3.70;;;3.60;;
3149;SDS011;32503;47.748;8.960;2022-07-06T09:16:16;4.13;;;3.83;;
3149;SDS011;32503;47.748;8.960;2022-07-06T09:18:45;3.73;;;3.63;;
3149;SDS011;32503;47.748;8.960;2022-07-06T09:21:16;4.20;;;4.00;;
3149;SDS011;32503;47.748;8.960;2022-07-06T09:23:52;4.10;;;3.90;;
3149;SDS011;32503;47.748;8.960;2022-07-06T09:26:21;4.47;;;4.27;;
3149;SDS011;32503;47.748;8.960;2022-07-06T09:28:48;4.47;;;4.10;;
3149;SDS011;32503;47.748;8.960;2022-07-06T09:31:15;5.50;;;4.23;;
3149;SDS011;32503;47.748;8.960;2022-07-06T09:33:54;4.10;;;4.00;;
3149;SDS011;32503;47.748;8.960;2022-07-06T09:36:38;4.17;;;4.03;;
3149;SDS011;32503;47.748;8.960;2022-07-06T09:39:20;4.20;;;3.97;;
3149;SDS011;32503;47.748;8.960;2022-07-06T09:41:50;4.10;;;4.00;;
3149;SDS011;32503;47.748;8.960;2022-07-06T09:44:20;4.40;;;4.23;;
3149;SDS011;32503;47.748;8.960;2022-07-06T09:46:49;4.10;;;3.90;;
3149;SDS011;32503;47.748;8.960;2022-07-06T09:49:18;4.80;;;4.50;;
3149;SDS011;32503;47.748;8.960;2022-07-06T09:51:47;4.23;;;4.13;;
3149;SDS011;32503;47.748;8.960;2022-07-06T09:54:16;4.20;;;4.10;;
3149;SDS011;32503;47.748;8.960;2022-07-06T09:56:44;4.40;;;4.20;;
3149;SDS011;32503;47.748;8.960;2022-07-06T09:59:16;4.60;;;4.50;;
3149;SDS011;32503;47.748;8.960;2022-07-06T10:01:46;4.50;;;4.20;;
3149;SDS011;32503;47.748;8.960;2022-07-06T10:04:18;4.37;;;4.17;;
3149;SDS011;32503;47.748;8.960;2022-07-06T10:06:45;4.47;;;4.37;;
3149;SDS011;32503;47.748;8.960;2022-07-06T10:09:14;4.10;;;3.90;;
3149;SDS011;32503;47.748;8.960;2022-07-06T10:11:43;4.63;;;4.40;;
3149;SDS011;32503;47.748;8.960;2022-07-06T10:14:15;4.53;;;4.13;;
3149;SDS011;32503;47.748;8.960;2022-07-06T10:16:46;4.10;;;3.80;;
3149;SDS011;32503;47.748;8.960;2022-07-06T10:19:14;4.03;;;3.80;;
3149;SDS011;32503;47.748;8.960;2022-07-06T10:21:45;4.47;;;4.27;;
3149;SDS011;32503;47.748;8.960;2022-07-06T10:24:12;4.30;;;4.10;;
3149;SDS011;32503;47.748;8.960;2022-07-06T10:26:41;4.03;;;3.83;;
3149;SDS011;32503;47.748;8.960;2022-07-06T10:29:08;4.20;;;4.00;;
3149;SDS011;32503;47.748;8.960;2022-07-06T10:31:38;4.17;;;4.00;;
3149;SDS011;32503;47.748;8.960;2022-07-06T10:34:10;4.13;;;3.87;;
3149;SDS011;32503;47.748;8.960;2022-07-06T10:36:42;4.23;;;4.13;;
3149;SDS011;32503;47.748;8.960;2022-07-06T10:39:11;3.80;;;3.70;;
3149;SDS011;32503;47.748;8.960;2022-07-06T10:42:04;4.00;;;3.70;;
3149;SDS011;32503;47.748;8.960;2022-07-06T10:44:31;4.37;;;4.17;;
3149;SDS011;32503;47.748;8.960;2022-07-06T10:46:58;4.50;;;4.20;;
3149;SDS011;32503;47.748;8.960;2022-07-06T10:49:26;4.17;;;3.77;;
3149;SDS011;32503;47.748;8.960;2022-07-06T10:51:55;3.60;;;3.50;;
3149;SDS011;32503;47.748;8.960;2022-07-06T10:54:23;4.93;;;4.53;;
3149;SDS011;32503;47.748;8.960;2022-07-06T10:56:51;11.53;;;4.47;;
3149;SDS011;32503;47.748;8.960;2022-07-06T10:59:21;4.23;;;4.03;;
3149;SDS011;32503;47.748;8.960;2022-07-06T11:04:39;5.33;;;4.87;;
3149;SDS011;32503;47.748;8.960;2022-07-06T11:07:08;4.47;;;4.10;;
3149;SDS011;32503;47.748;8.960;2022-07-06T11:09:38;5.30;;;4.23;;
3149;SDS011;32503;47.748;8.960;2022-07-06T11:12:16;4.30;;;4.03;;
3149;SDS011;32503;47.748;8.960;2022-07-06T11:14:45;5.73;;;4.53;;
3149;SDS011;32503;47.748;8.960;2022-07-06T11:17:13;4.33;;;4.03;;
3149;SDS011;32503;47.748;8.960;2022-07-06T11:19:48;4.27;;;4.07;;
3149;SDS011;32503;47.748;8.960;2022-07-06T11:22:18;4.23;;;4.00;;
3149;SDS011;32503;47.748;8.960;2022-07-06T11:24:45;3.93;;;3.83;;
3149;SDS011;32503;47.748;8.960;2022-07-06T11:27:14;4.23;;;3.93;;
3149;SDS011;32503;47.748;8.960;2022-07-06T11:29:41;4.00;;;3.90;;
3149;SDS011;32503;47.748;8.960;2022-07-06T11:32:10;4.47;;;4.23;;
3149;SDS011;32503;47.748;8.960;2022-07-06T11:34:39;4.20;;;3.80;;
3149;SDS011;32503;47.748;8.960;2022-07-06T11:37:09;4.63;;;4.43;;
3149;SDS011;32503;47.748;8.960;2022-07-06T11:39:40;4.00;;;3.90;;
3149;SDS011;32503;47.748;8.960;2022-07-06T11:42:09;4.23;;;3.93;;
3149;SDS011;32503;47.748;8.960;2022-07-06T11:44:37;4.83;;;4.47;;
3149;SDS011;32503;47.748;8.960;2022-07-06T11:47:06;5.10;;;4.27;;
3149;SDS011;32503;47.748;8.960;2022-07-06T11:49:36;3.50;;;3.40;;
3149;SDS011;32503;47.748;8.960;2022-07-06T11:52:08;3.47;;;3.23;;
3149;SDS011;32503;47.748;8.960;2022-07-06T11:54:37;4.07;;;3.80;;
3149;SDS011;32503;47.748;8.960;2022-07-06T11:57:07;3.80;;;3.50;;
3149;SDS011;32503;47.748;8.960;2022-07-06T11:59:36;3.50;;;3.40;;
3149;SDS011;32503;47.748;8.960;2022-07-06T12:02:06;3.67;;;3.57;;
3149;SDS011;32503;47.748;8.960;2022-07-06T12:04:36;4.50;;;4.20;;
3149;SDS011;32503;47.748;8.960;2022-07-06T12:07:06;4.00;;;3.67;;
3149;SDS011;32503;47.748;8.960;2022-07-06T12:09:37;4.00;;;3.70;;
3149;SDS011;32503;47.748;8.960;2022-07-06T12:12:07;4.63;;;4.33;;
3149;SDS011;32503;47.748;8.960;2022-07-06T12:14:37;4.30;;;4.10;;
3149;SDS011;32503;47.748;8.960;2022-07-06T12:17:05;4.00;;;3.70;;
3149;SDS011;32503;47.748;8.960;2022-07-06T12:19:34;3.90;;;3.80;;
3149;SDS011;32503;47.748;8.960;2022-07-06T12:22:03;3.70;;;3.60;;
3149;SDS011;32503;47.748;8.960;2022-07-06T12:24:31;4.10;;;3.90;;
3149;SDS011;32503;47.748;8.960;2022-07-06T12:27:10;3.87;;;3.77;;
3149;SDS011;32503;47.748;8.960;2022-07-06T12:29:39;4.60;;;4.30;;
3149;SDS011;32503;47.748;8.960;2022-07-06T12:32:13;4.00;;;3.90;;
3149;SDS011;32503;47.748;8.960;2022-07-06T12:34:41;4.13;;;3.93;;
3149;SDS011;32503;47.748;8.960;2022-07-06T12:37:09;3.27;;;3.17;;
3149;SDS011;32503;47.748;8.960;2022-07-06T12:39:40;4.00;;;3.90;;
3149;SDS011;32503;47.748;8.960;2022-07-06T12:42:12;8.53;;;4.03;;
3149;SDS011;32503;47.748;8.960;2022-07-06T12:44:41;3.67;;;3.47;;
3149;SDS011;32503;47.748;8.960;2022-07-06T12:47:10;3.57;;;3.40;;
3149;SDS011;32503;47.748;8.960;2022-07-06T12:49:37;3.10;;;2.83;;
3149;SDS011;32503;47.748;8.960;2022-07-06T12:52:09;3.73;;;3.53;;
3149;SDS011;32503;47.748;8.960;2022-07-06T12:54:40;3.80;;;3.60;;
3149;SDS011;32503;47.748;8.960;2022-07-06T12:57:11;4.20;;;4.00;;
3149;SDS011;32503;47.748;8.960;2022-07-06T12:59:41;4.23;;;4.03;;
3149;SDS011;32503;47.748;8.960;2022-07-06T13:02:17;4.50;;;4.27;;
3149;SDS011;32503;47.748;8.960;2022-07-06T13:04:54;3.70;;;3.60;;
3149;SDS011;32503;47.748;8.960;2022-07-06T13:07:22;4.27;;;3.97;;
3149;SDS011;32503;47.748;8.960;2022-07-06T13:09:51;4.57;;;4.17;;
3149;SDS011;32503;47.748;8.960;2022-07-06T13:12:19;3.80;;;3.60;;
3149;SDS011;32503;47.748;8.960;2022-07-06T13:14:47;4.60;;;4.27;;
3149;SDS011;32503;47.748;8.960;2022-07-06T13:17:14;3.80;;;3.70;;
3149;SDS011;32503;47.748;8.960;2022-07-06T13:19:41;3.87;;;3.77;;
3149;SDS011;32503;47.748;8.960;2022-07-06T13:22:09;4.93;;;4.63;;
3149;SDS011;32503;47.748;8.960;2022-07-06T13:24:36;4.23;;;3.93;;
3149;SDS011;32503;47.748;8.960;2022-07-06T13:27:04;4.30;;;4.20;;
3149;SDS011;32503;47.748;8.960;2022-07-06T13:29:33;5.00;;;4.10;;
3149;SDS011;32503;47.748;8.960;2022-07-06T13:32:01;3.73;;;3.63;;
3149;SDS011;32503;47.748;8.960;2022-07-06T13:34:29;4.60;;;4.30;;
3149;SDS011;32503;47.748;8.960;2022-07-06T13:36:56;3.97;;;3.87;;
3149;SDS011;32503;47.748;8.960;2022-07-06T13:39:23;3.93;;;3.83;;
3149;SDS011;32503;47.748;8.960;2022-07-06T13:41:52;4.20;;;4.00;;
3149;SDS011;32503;47.748;8.960;2022-07-06T13:44:19;4.07;;;3.87;;
3149;SDS011;32503;47.748;8.960;2022-07-06T13:46:48;4.50;;;4.30;;
3149;SDS011;32503;47.748;8.960;2022-07-06T13:49:16;4.00;;;3.90;;
3149;SDS011;32503;47.748;8.960;2022-07-06T13:51:43;4.20;;;4.00;;
3149;SDS011;32503;47.748;8.960;2022-07-06T13:54:10;4.20;;;3.90;;
3149;SDS011;32503;47.748;8.960;2022-07-06T13:56:38;4.73;;;4.43;;
3149;SDS011;32503;47.748;8.960;2022-07-06T13:59:06;4.80;;;4.50;;
3149;SDS011;32503;47.748;8.960;2022-07-06T14:01:33;4.83;;;4.53;;
3149;SDS011;32503;47.748;8.960;2022-07-06T14:04:02;4.70;;;4.40;;
3149;SDS011;32503;47.748;8.960;2022-07-06T14:06:29;4.40;;;4.20;;
3149;SDS011;32503;47.748;8.960;2022-07-06T14:08:56;4.60;;;3.97;;
3149;SDS011;32503;47.748;8.960;2022-07-06T14:11:23;4.17;;;3.97;;
3149;SDS011;32503;47.748;8.960;2022-07-06T14:13:50;3.70;;;3.50;;
3149;SDS011;32503;47.748;8.960;2022-07-06T14:16:17;4.47;;;4.27;;
3149;SDS011;32503;47.748;8.960;2022-07-06T14:18:45;4.40;;;4.10;;
3149;SDS011;32503;47.748;8.960;2022-07-06T14:21:13;4.73;;;4.33;;
3149;SDS011;32503;47.748;8.960;2022-07-06T14:23:40;4.57;;;4.33;;
3149;SDS011;32503;47.748;8.960;2022-07-06T14:26:07;5.00;;;4.10;;
3149;SDS011;32503;47.748;8.960;2022-07-06T14:28:34;4.50;;;4.30;;
3149;SDS011;32503;47.748;8.960;2022-07-06T14:31:02;4.50;;;4.30;;
3149;SDS011;32503;47.748;8.960;2022-07-06T14:33:29;5.93;;;4.87;;
3149;SDS011;32503;47.748;8.960;2022-07-06T14:35:56;3.80;;;3.70;;
3149;SDS011;32503;47.748;8.960;2022-07-06T14:38:25;4.53;;;4.13;;
3149;SDS011;32503;47.748;8.960;2022-07-06T14:40:53;5.13;;;4.50;;
3149;SDS011;32503;47.748;8.960;2022-07-06T14:43:20;4.20;;;4.00;;
3149;SDS011;32503;47.748;8.960;2022-07-06T14:45:47;4.73;;;4.53;;
3149;SDS011;32503;47.748;8.960;2022-07-06T14:48:14;4.43;;;4.13;;
3149;SDS011;32503;47.748;8.960;2022-07-06T14:50:42;3.80;;;3.70;;
3149;SDS011;32503;47.748;8.960;2022-07-06T14:53:09;4.50;;;4.40;;
3149;SDS011;32503;47.748;8.960;2022-07-06T14:55:37;4.73;;;4.53;;
3149;SDS011;32503;47.748;8.960;2022-07-06T14:58:04;4.10;;;3.90;;
3149;SDS011;32503;47.748;8.960;2022-07-06T15:00:31;3.80;;;3.70;;
3149;SDS011;32503;47.748;8.960;2022-07-06T15:02:59;4.20;;;4.00;;
3149;SDS011;32503;47.748;8.960;2022-07-06T15:05:26;4.37;;;3.97;;
3149;SDS011;32503;47.748;8.960;2022-07-06T15:07:53;4.27;;;4.07;;
3149;SDS011;32503;47.748;8.960;2022-07-06T15:10:20;3.43;;;3.33;;